Aeroporto :
LOGIN :

Iscrizione | Disclaimer

   EN    FR    IT 

 










Sommario :    VFR   VFR Marginale   IFR   IFR Intensivo   IFR Molto Intensivo
Visibilità : 
Base nubi : 
>= 8 km
>= 3000ft
5 / 8 km
1000 / 3000 ft
1500m / 5 km
500 / 1000 ft
800 / 1500m
200 / 500 ft
< 800m
< 200 ft
Simboli :   Temporali  Nebbia  Neve Forte  Precipitazioni Forti  Vento > 20 kt
SIGMETs :   Varie  Temporali  Ghiacco  Turbolenza  Onda orograficha  Ceneri Vulcaniche






- Altitudine del aeroporto : 978 ft
- Codice IATA : LNZ


LOWL - Linz

ULTIMO METAR :
  • 040720Z 32005KT 9999 VCFG FEW006 M05/M06 Q0995 R08/190195 NOSIG

METARs OBSOLETI :
  • 040650Z 30004KT 260V030 9000 VCFG FEW006 M06/M06 Q0994 R08/190195 NOSIG
  • 040620Z 27006KT 5000 BR VCFG FEW006 M06/M06 Q0994 R08/190195 TEMPO 0800 FZBCFG
  • 040550Z VRB02KT 5000 BR FEW006 M05/M05 Q0994 R08/190195 TEMPO 0800 FZBCFG
  • 040520Z 19003KT 110V220 9999 FEW006 M04/M04 Q0995 R08/190195 NOSIG
  • 040450Z 11003KT 9999 FEW006 M04/M04 Q0995 R08/190195 NOSIG

TAF TAF LOWL
Valido dal 04 a 06 ore il 05 a 06 ore UTC


040515Z 0406/0506 08007KT CAVOK TX03/0414Z TNM03/0407Z
PROB30
TEMPO 0406/0410 VRB02KT 0900 FZBCFG BKN003
BECMG 0419/0421 09012KT
TEMPO 0500/0506 09017G30KT



MetMap, La meteo Aeronautica in un colpo d'occhio ! - Copyright ORBIFLY Dicembre 2007 - Disclaimer

ORBIFLY MET'MAP TEAM :

Programmazione e sviluppo : Alexandra Zaïnal
Concezione : Baudouin d'Aumeries
Aiuto per la programmazione : Marc-Olivier Méhu
Supporto tecnico e logistico : Manuel Goepfert
Aiuto per la traduzione : Arnaldo La Scala

Contatto : metmap@orbifly.com




FONTI E CREDITI :

   NOAA